Main page
METAR-TAF:

METAR-TAF

Airports :

NATO Air Base Geilenkirchen

Geilenkirchen, Germany

latitude: 50-57-39N, longitude: 006-2-33E, elevation: 90 m

Current weather observation

The report was made 47 minutes ago, at 00:50 UTC
Calm wind
Temperature 17°C
Humidity 88%
Pressure 1017 hPa
Visibility 10 km or more
no clouds below 1500 m and no cumulonimbus

METAR: ETNG 250050Z 00000KT CAVOK 17/15 Q1017

Time: 03:37 (01:37 UTC)

Forecast

The report was made 2 hours and 37 minutes ago, at 23:00 UTC
Forecast valid from 25 at 00 UTC to 25 at 15 UTC
Wind 4 kt from the East/Northeast
Visibility 10 km or more
no clouds below 1500 m and no cumulonimbus

TAF: ETNG 242300Z 2500/2515 07004KT CAVOK

Weather observations and forecasts of more than 4000 airports (METAR and TAF reports).

The available stations are represented by yellow and red dots on the map.

Hover mouse over dot to see the name of the station.

Then click to see weather observations and forecasts.

To change the map : click on the green buttons with a black cross to zoom in, on the green button with a dash to zoom out, or on the green arrows for adjacent maps.


METAR-TAF: